Time;durP1;ratioP1;P1;durP2;ratioP2;P2;SDS_P1;SDS_P2;PMS_P1;PMS_P2;Temp;Humidity;BMP_temperature;BMP_pressure;BME280_temperature;BME280_humidity;BME280_pressure;Samples;Min_cycle;Max_cycle;Signal;HPM_P1;HPM_P2
2023/07/15 00:01:24;;;;;;;2.80;2.20;;;;;;;21.56;69.10;97589.31;4976167;28;20215;-77
2023/07/15 00:03:52;;;;;;;2.88;2.50;;;;;;;21.50;68.65;97587.81;4976440;28;20204;-77
2023/07/15 00:06:20;;;;;;;3.28;2.97;;;;;;;21.50;69.36;97591.31;4976108;28;20698;-77
2023/07/15 00:08:47;;;;;;;3.00;2.17;;;;;;;21.54;70.32;97599.63;4976345;28;20235;-77
2023/07/15 00:11:34;;;;;;;2.72;2.47;;;;;;;21.55;68.69;97603.94;4976102;28;20686;-77
2023/07/15 00:14:02;;;;;;;4.72;2.58;;;;;;;21.49;69.91;97605.13;4976462;28;20199;-77
2023/07/15 00:16:30;;;;;;;3.77;2.37;;;;;;;21.44;70.49;97599.81;4975810;28;20218;-77
2023/07/15 00:18:56;;;;;;;2.92;2.42;;;;;;;21.48;69.27;97595.44;4976313;28;20228;-77
2023/07/15 00:21:26;;;;;;;3.47;2.63;;;;;;;21.52;68.85;97599.13;4976259;28;20214;-77
2023/07/15 00:23:55;;;;;;;3.25;2.65;;;;;;;21.49;68.19;97592.44;4976104;28;20212;-77
2023/07/15 00:26:29;;;;;;;3.77;2.37;;;;;;;21.49;69.04;97597.84;4976106;28;20204;-77
2023/07/15 00:28:55;;;;;;;2.72;2.50;;;;;;;21.48;69.63;97590.00;4975911;28;20232;-77
2023/07/15 00:31:23;;;;;;;3.37;2.50;;;;;;;21.42;69.56;97593.91;4976249;28;20219;-78
2023/07/15 00:33:50;;;;;;;3.63;2.42;;;;;;;21.38;70.38;97603.75;4975921;28;20215;-77
2023/07/15 00:36:17;;;;;;;2.83;2.50;;;;;;;21.35;69.92;97596.22;4975838;28;20219;-77
2023/07/15 00:38:44;;;;;;;3.00;2.70;;;;;;;21.34;70.78;97606.22;4975319;28;20729;-78
2023/07/15 00:41:23;;;;;;;2.60;2.40;;;;;;;21.33;72.53;97598.41;4975694;28;20215;-78
2023/07/15 00:43:51;;;;;;;2.47;2.27;;;;;;;21.22;72.31;97605.09;4975818;28;20219;-78
2023/07/15 00:46:21;;;;;;;3.07;2.37;;;;;;;21.19;72.20;97592.97;4975641;28;20615;-78
2023/07/15 00:48:50;;;;;;;2.80;2.37;;;;;;;21.17;71.52;97595.19;4975561;28;20228;-78
2023/07/15 00:51:17;;;;;;;3.30;2.83;;;;;;;21.12;72.70;97602.56;4975406;28;20220;-78
2023/07/15 00:53:44;;;;;;;3.80;2.73;;;;;;;21.15;71.58;97599.25;4975527;28;20208;-78
2023/07/15 00:56:11;;;;;;;6.07;2.53;;;;;;;21.04;73.05;97601.38;4975555;28;20208;-78
2023/07/15 00:58:38;;;;;;;2.93;2.73;;;;;;;21.03;72.13;97597.03;4975477;28;20246;-78
2023/07/15 01:01:06;;;;;;;3.97;2.90;;;;;;;21.03;71.90;97598.94;4975475;28;20208;-78
2023/07/15 01:03:33;;;;;;;3.57;2.93;;;;;;;20.95;73.13;97605.03;4975101;28;20208;-78
2023/07/15 01:06:00;;;;;;;3.30;2.83;;;;;;;20.94;73.85;97604.22;4975552;28;20204;-78
2023/07/15 01:08:26;;;;;;;4.40;2.87;;;;;;;20.93;75.13;97601.81;4975578;28;20232;-78
2023/07/15 01:10:52;;;;;;;5.03;2.80;;;;;;;20.97;76.28;97594.72;4975269;28;20234;-78
2023/07/15 01:13:19;;;;;;;4.13;2.80;;;;;;;21.00;75.09;97602.25;4974510;28;20222;-78
2023/07/15 01:15:46;;;;;;;4.53;2.90;;;;;;;20.99;75.68;97598.75;4975150;28;20573;-78
2023/07/15 01:18:13;;;;;;;3.10;2.80;;;;;;;20.96;75.09;97598.50;4975018;28;20228;-78
2023/07/15 01:20:40;;;;;;;4.90;3.10;;;;;;;20.92;76.11;97592.09;4975103;28;20210;-78
2023/07/15 01:23:06;;;;;;;3.30;3.00;;;;;;;21.03;75.47;97593.53;4975008;28;20207;-78
2023/07/15 01:25:32;;;;;;;5.50;3.00;;;;;;;21.03;77.23;97591.63;4974847;28;20674;-78
2023/07/15 01:27:59;;;;;;;5.07;3.20;;;;;;;20.90;78.61;97584.31;4974738;28;20578;-78
2023/07/15 01:30:25;;;;;;;3.30;2.80;;;;;;;20.91;78.78;97595.91;4975065;28;20228;-78
2023/07/15 01:32:52;;;;;;;4.07;3.27;;;;;;;20.93;78.26;97591.81;4974990;28;20223;-78
2023/07/15 01:35:18;;;;;;;4.30;3.17;;;;;;;20.84;78.70;97606.28;4976473;28;20207;-78
2023/07/15 01:37:44;;;;;;;3.43;3.13;;;;;;;20.87;78.93;97595.66;4974974;28;20208;-78
2023/07/15 01:40:13;;;;;;;3.77;3.33;;;;;;;20.88;78.44;97599.16;4974698;28;20667;-77
2023/07/15 01:42:40;;;;;;;5.03;3.20;;;;;;;20.84;79.63;97584.66;4975099;28;20225;-77
2023/07/15 01:45:08;;;;;;;3.53;3.07;;;;;;;20.81;79.81;97596.03;4974895;28;20208;-77
2023/07/15 01:47:35;;;;;;;4.03;3.30;;;;;;;20.88;78.83;97581.06;4974637;28;20208;-77
2023/07/15 01:50:01;;;;;;;3.67;2.70;;;;;;;20.85;79.74;97592.44;4974733;28;20228;-77
2023/07/15 01:52:27;;;;;;;3.37;3.07;;;;;;;20.69;82.30;97585.69;4974816;28;20215;-77
2023/07/15 01:54:54;;;;;;;4.97;3.20;;;;;;;20.69;81.60;97591.09;4974836;28;20208;-77
2023/07/15 01:57:21;;;;;;;4.23;3.07;;;;;;;20.70;81.67;97584.59;4974567;28;20212;-77
2023/07/15 01:59:48;;;;;;;3.43;3.13;;;;;;;20.69;81.84;97576.78;4974384;28;20826;-77
2023/07/15 02:02:14;;;;;;;3.40;2.93;;;;;;;20.58;82.97;97575.34;4974484;28;20214;-77
2023/07/15 02:04:41;;;;;;;3.17;2.87;;;;;;;20.51;82.62;97569.50;4974470;28;20211;-77
2023/07/15 02:07:07;;;;;;;4.00;2.80;;;;;;;20.54;83.19;97583.25;4974260;28;20214;-77
2023/07/15 02:09:34;;;;;;;4.47;2.80;;;;;;;20.56;82.67;97577.53;4974653;28;20339;-77
2023/07/15 02:12:00;;;;;;;4.43;3.10;;;;;;;20.53;83.27;97572.72;4974446;28;20208;-78
2023/07/15 02:14:26;;;;;;;3.77;2.83;;;;;;;20.49;84.17;97571.72;4974813;28;20208;-78
2023/07/15 02:16:53;;;;;;;3.63;2.87;;;;;;;20.48;84.75;97570.88;4974794;28;20226;-77
2023/07/15 02:19:20;;;;;;;4.50;3.10;;;;;;;20.57;83.81;97566.44;4974541;28;20310;-78
2023/07/15 02:21:46;;;;;;;3.93;2.87;;;;;;;20.53;84.54;97567.31;4974771;28;20240;-78
2023/07/15 02:24:12;;;;;;;3.23;2.93;;;;;;;20.53;84.31;97573.50;4975935;28;20208;-78
2023/07/15 02:26:39;;;;;;;4.77;3.00;;;;;;;20.53;84.39;97565.41;4978425;28;20207;-78
2023/07/15 02:29:05;;;;;;;5.53;3.20;;;;;;;20.43;85.80;97565.56;4978170;28;20227;-78
2023/07/15 02:31:31;;;;;;;3.80;3.47;;;;;;;20.41;85.72;97564.25;4978400;28;20211;-78
2023/07/15 02:33:58;;;;;;;5.43;3.43;;;;;;;20.52;84.35;97558.41;4978259;28;20209;-78
2023/07/15 02:36:24;;;;;;;4.10;3.70;;;;;;;20.48;85.61;97559.31;4978605;28;20220;-78
2023/07/15 02:38:50;;;;;;;4.93;3.43;;;;;;;20.54;84.24;97556.25;4978170;28;20298;-78
2023/07/15 02:41:17;;;;;;;4.70;3.50;;;;;;;20.57;85.23;97557.53;4978281;28;20199;-78
2023/07/15 02:43:43;;;;;;;4.10;3.70;;;;;;;20.64;83.60;97557.94;4978290;28;20234;-77
2023/07/15 02:46:09;;;;;;;3.63;3.33;;;;;;;20.60;83.81;97559.63;4978099;28;20212;-77
2023/07/15 02:48:36;;;;;;;5.53;3.40;;;;;;;20.61;83.99;97559.34;4977885;28;20228;-77
2023/07/15 02:51:02;;;;;;;3.97;3.40;;;;;;;20.49;85.92;97560.91;4977823;28;20228;-77
2023/07/15 02:53:29;;;;;;;5.63;3.27;;;;;;;20.45;88.24;97559.88;4977633;28;20204;-77
2023/07/15 02:55:56;;;;;;;4.23;3.40;;;;;;;20.33;87.90;97556.81;4978103;28;20627;-77
2023/07/15 02:58:23;;;;;;;3.53;3.23;;;;;;;20.40;87.50;97559.97;4977921;28;20307;-77
2023/07/15 03:00:52;;;;;;;6.07;3.67;;;;;;;20.36;87.48;97556.25;4977524;28;20204;-77
2023/07/15 03:03:19;;;;;;;3.53;3.00;;;;;;;20.34;86.55;97553.03;4977822;28;20208;-77
2023/07/15 03:05:50;;;;;;;4.80;3.17;;;;;;;20.28;88.31;97551.50;4977535;28;20541;-77
2023/07/15 03:08:16;;;;;;;5.07;3.33;;;;;;;20.24;89.25;97551.28;4978001;28;20235;-77
2023/07/15 03:10:44;;;;;;;4.30;3.00;;;;;;;20.26;88.56;97559.09;4977389;28;20586;-77
2023/07/15 03:13:10;;;;;;;3.67;2.90;;;;;;;20.25;88.87;97558.28;4977277;28;20682;-77
2023/07/15 03:15:37;;;;;;;4.33;3.30;;;;;;;20.26;89.38;97559.88;4977424;28;20208;-77
2023/07/15 03:18:04;;;;;;;3.53;3.20;;;;;;;20.19;90.87;97566.75;4977347;28;20208;-77
2023/07/15 03:20:30;;;;;;;4.10;3.20;;;;;;;20.24;89.37;97562.09;4977342;28;20207;-77
2023/07/15 03:22:57;;;;;;;6.30;3.23;;;;;;;20.25;88.45;97552.88;4977090;28;20211;-77
2023/07/15 03:25:24;;;;;;;3.27;3.03;;;;;;;20.17;90.12;97560.84;4977312;28;20204;-77
2023/07/15 03:27:51;;;;;;;3.37;3.03;;;;;;;20.16;89.90;97549.25;4977210;28;20219;-77
2023/07/15 03:30:19;;;;;;;3.73;3.23;;;;;;;20.11;90.31;97553.94;4977165;28;20224;-77
2023/07/15 03:32:46;;;;;;;4.37;3.20;;;;;;;20.13;89.89;97557.94;4977203;28;20210;-77
2023/07/15 03:35:13;;;;;;;3.73;2.80;;;;;;;20.26;87.54;97551.00;4976569;28;20235;-77
2023/07/15 03:37:42;;;;;;;5.47;2.90;;;;;;;20.24;88.66;97559.38;4976819;28;20215;-77
2023/07/15 03:40:10;;;;;;;5.50;3.07;;;;;;;20.18;91.21;97551.66;4976607;28;20232;-77
2023/07/15 03:42:37;;;;;;;4.87;2.97;;;;;;;20.15;90.70;97568.41;4976908;28;20211;-77
2023/07/15 03:45:05;;;;;;;3.20;3.00;;;;;;;20.18;90.47;97559.75;4976840;28;20211;-77
2023/07/15 03:47:32;;;;;;;7.10;3.30;;;;;;;20.19;88.70;97555.94;4976615;28;20207;-77
2023/07/15 03:49:58;;;;;;;3.90;3.43;;;;;;;20.16;89.19;97556.56;4975916;28;20232;-77
2023/07/15 03:52:25;;;;;;;3.93;3.00;;;;;;;20.19;88.79;97559.47;4976506;28;20220;-77
2023/07/15 03:54:51;;;;;;;4.60;3.20;;;;;;;20.22;87.44;97568.88;4976775;28;20335;-77
2023/07/15 03:57:17;;;;;;;3.97;3.10;;;;;;;20.24;87.07;97563.97;4977772;28;20212;-77
2023/07/15 03:59:44;;;;;;;3.63;2.87;;;;;;;20.21;87.76;97562.66;4976597;28;20228;-77
2023/07/15 04:02:10;;;;;;;6.30;3.40;;;;;;;20.25;86.76;97557.50;4976471;28;20300;-77
2023/07/15 04:04:37;;;;;;;6.97;3.17;;;;;;;20.22;88.50;97549.97;4991674;28;20207;-77
2023/07/15 04:07:03;;;;;;;4.47;3.27;;;;;;;20.26;87.18;97548.31;4993434;28;20203;-77
2023/07/15 04:09:30;;;;;;;3.83;2.80;;;;;;;20.36;85.83;97542.75;4995619;28;20238;-77
2023/07/15 04:11:57;;;;;;;3.43;3.17;;;;;;;20.29;87.28;97550.41;4995766;28;20214;-77
2023/07/15 04:14:23;;;;;;;5.27;3.47;;;;;;;20.29;86.78;97545.00;4995566;28;20673;-78
2023/07/15 04:16:50;;;;;;;3.80;3.00;;;;;;;20.29;86.20;97545.81;4994763;28;20290;-77
2023/07/15 04:19:16;;;;;;;2.90;2.70;;;;;;;20.27;86.78;97541.81;4984612;28;20238;-77
2023/07/15 04:21:42;;;;;;;3.33;3.03;;;;;;;20.32;87.11;97549.81;4995633;28;20207;-77
2023/07/15 04:24:08;;;;;;;5.63;3.17;;;;;;;20.43;85.22;97535.88;4981343;28;20219;-77
2023/07/15 04:26:35;;;;;;;4.67;3.03;;;;;;;20.36;85.85;97540.03;4991341;28;20208;-78
2023/07/15 04:29:02;;;;;;;3.07;2.87;;;;;;;20.37;86.10;97547.03;4978533;28;20242;-78
2023/07/15 04:31:28;;;;;;;4.67;3.00;;;;;;;20.42;86.03;97538.84;4990965;28;20249;-78
2023/07/15 04:33:54;;;;;;;3.73;3.00;;;;;;;20.43;86.68;97541.28;4976160;28;20214;-78
2023/07/15 04:36:22;;;;;;;5.17;3.03;;;;;;;20.40;88.11;97536.47;4986077;28;20211;-77
2023/07/15 04:38:49;;;;;;;3.60;3.07;;;;;;;20.46;88.29;97546.09;4992399;28;20227;-77
2023/07/15 04:41:15;;;;;;;3.33;2.90;;;;;;;20.50;85.98;97533.63;4979798;28;20286;-77
2023/07/15 04:43:42;;;;;;;3.20;2.90;;;;;;;20.54;86.26;97536.53;4982076;28;20680;-77
2023/07/15 04:46:09;;;;;;;3.77;2.87;;;;;;;20.60;83.61;97535.31;4985585;28;20203;-77
2023/07/15 04:48:35;;;;;;;3.80;2.80;;;;;;;20.66;83.41;97537.66;4979474;28;20235;-77
2023/07/15 04:51:01;;;;;;;4.87;2.67;;;;;;;20.70;82.75;97540.59;4979294;28;20223;-77
2023/07/15 04:53:28;;;;;;;5.00;2.77;;;;;;;20.74;83.33;97539.69;4986098;28;20206;-77
2023/07/15 04:55:54;;;;;;;3.53;2.80;;;;;;;20.80;82.83;97540.41;4995330;28;20290;-77
2023/07/15 04:58:20;;;;;;;4.03;2.80;;;;;;;20.90;81.97;97546.47;4992752;28;20310;-77
2023/07/15 05:00:48;;;;;;;3.27;2.60;;;;;;;20.90;82.96;97543.78;4988830;28;20674;-77
2023/07/15 05:03:15;;;;;;;4.23;3.20;;;;;;;20.98;81.77;97547.69;4974952;28;20562;-77
2023/07/15 05:05:44;;;;;;;3.93;2.83;;;;;;;21.07;80.77;97557.50;4975281;28;20223;-77
2023/07/15 05:08:21;;;;;;;3.53;2.77;;;;;;;21.20;80.07;97548.63;4973698;28;20580;-77
2023/07/15 05:10:48;;;;;;;5.03;2.87;;;;;;;21.45;79.51;97555.44;4974319;28;20216;-77
2023/07/15 05:13:15;;;;;;;6.30;2.67;;;;;;;22.06;74.41;97558.56;4975711;28;20211;-77
2023/07/15 05:15:43;;;;;;;3.63;2.80;;;;;;;22.54;72.09;97556.91;4984127;28;20230;-77
2023/07/15 05:18:10;;;;;;;3.37;2.70;;;;;;;22.90;70.05;97558.47;4994434;28;20713;-77
2023/07/15 05:20:37;;;;;;;3.93;2.70;;;;;;;22.81;71.35;97560.31;4994764;28;20546;-77
2023/07/15 05:23:04;;;;;;;3.25;2.80;;;;;;;22.84;71.77;97554.25;4994400;28;20737;-77
2023/07/15 05:25:32;;;;;;;4.03;2.92;;;;;;;22.94;71.05;97566.75;4994612;28;20211;-77
2023/07/15 05:27:59;;;;;;;3.03;2.50;;;;;;;23.72;66.05;97559.50;4994790;28;20207;-78
2023/07/15 05:30:26;;;;;;;3.10;2.90;;;;;;;24.40;63.40;97554.22;4994815;28;20318;-78
2023/07/15 05:32:52;;;;;;;2.83;2.50;;;;;;;24.55;62.39;97548.28;4994255;28;20666;-78
2023/07/15 05:35:19;;;;;;;5.47;2.70;;;;;;;24.45;62.44;97555.97;4994759;28;20250;-77
2023/07/15 05:37:46;;;;;;;3.33;2.83;;;;;;;23.84;65.21;97558.91;4994236;28;20210;-78
2023/07/15 05:40:13;;;;;;;3.05;2.70;;;;;;;23.61;65.11;97549.25;4993966;28;20199;-78
2023/07/15 05:42:43;;;;;;;6.25;2.53;;;;;;;23.45;67.16;97561.63;4994253;28;20213;-78
2023/07/15 05:45:11;;;;;;;2.80;2.50;;;;;;;23.21;70.40;97556.59;4994404;28;20191;-77
2023/07/15 05:47:38;;;;;;;4.78;2.83;;;;;;;23.20;68.97;97556.91;4995133;28;20207;-77
2023/07/15 05:50:06;;;;;;;5.72;3.00;;;;;;;23.17;69.80;97552.88;4994177;28;20234;-77
2023/07/15 05:52:33;;;;;;;3.28;2.60;;;;;;;23.25;70.06;97559.47;4994130;28;20740;-77
2023/07/15 05:54:59;;;;;;;2.65;2.30;;;;;;;23.20;70.97;97570.47;4993943;28;20693;-77
2023/07/15 05:57:26;;;;;;;5.97;3.08;;;;;;;23.24;70.69;97558.66;4993895;28;20208;-78
2023/07/15 05:59:52;;;;;;;3.97;2.85;;;;;;;23.44;67.80;97544.56;4996857;28;20238;-77
2023/07/15 06:02:19;;;;;;;5.78;2.60;;;;;;;23.65;67.23;97547.50;4997915;28;20666;-77
2023/07/15 06:04:45;;;;;;;4.65;2.72;;;;;;;23.67;67.19;97540.66;4998411;28;20291;-77
2023/07/15 06:07:11;;;;;;;5.53;2.47;;;;;;;23.80;67.51;97533.50;4997893;28;20623;-77
2023/07/15 06:09:38;;;;;;;3.80;2.65;;;;;;;23.88;66.59;97540.88;4998117;28;20227;-77
2023/07/15 06:12:04;;;;;;;4.50;2.58;;;;;;;23.91;66.11;97538.34;4998186;28;20231;-77
2023/07/15 06:14:31;;;;;;;3.90;2.83;;;;;;;24.03;65.88;97532.28;4997796;28;20211;-77
2023/07/15 06:16:57;;;;;;;4.32;2.80;;;;;;;24.17;64.58;97533.75;4997998;28;20214;-77
2023/07/15 06:19:24;;;;;;;3.78;2.45;;;;;;;24.27;64.72;97530.72;4997732;28;20234;-77
2023/07/15 06:21:51;;;;;;;3.22;2.83;;;;;;;24.30;64.18;97523.84;4997746;28;20378;-77
2023/07/15 06:24:17;;;;;;;3.35;2.60;;;;;;;24.35;63.13;97521.78;4997516;28;20697;-77
2023/07/15 06:26:44;;;;;;;2.83;2.45;;;;;;;24.37;64.34;97510.59;4997599;28;20218;-77
2023/07/15 06:29:10;;;;;;;4.53;2.92;;;;;;;24.51;63.91;97509.28;4997424;28;20732;-77
2023/07/15 06:31:36;;;;;;;3.33;2.45;;;;;;;24.61;61.55;97505.47;4997559;28;20234;-77
2023/07/15 06:34:03;;;;;;;3.25;2.50;;;;;;;24.75;62.30;97503.38;4997687;28;20207;-77
2023/07/15 06:36:29;;;;;;;4.13;2.65;;;;;;;24.78;61.52;97503.53;4997600;28;20203;-77
2023/07/15 06:38:56;;;;;;;2.65;2.45;;;;;;;24.74;61.21;97501.78;4997772;28;20584;-78
2023/07/15 06:41:22;;;;;;;3.30;2.65;;;;;;;24.75;61.57;97506.91;4997639;28;20211;-77
2023/07/15 06:43:48;;;;;;;3.67;2.67;;;;;;;24.80;61.14;97504.00;4997362;28;20207;-77
2023/07/15 06:46:15;;;;;;;3.35;2.85;;;;;;;24.96;60.61;97499.63;4997314;28;20207;-77
2023/07/15 06:48:43;;;;;;;3.38;2.50;;;;;;;25.17;59.76;97497.00;4997399;28;20227;-77
2023/07/15 06:51:11;;;;;;;4.13;2.80;;;;;;;25.29;58.96;97492.50;4996972;28;20724;-78
2023/07/15 06:53:38;;;;;;;3.40;2.47;;;;;;;25.35;58.72;97498.56;4997483;28;20211;-77
2023/07/15 06:56:04;;;;;;;2.97;2.60;;;;;;;25.39;57.25;97496.78;4997310;28;20211;-77
2023/07/15 06:58:31;;;;;;;2.78;2.45;;;;;;;25.43;57.88;97498.56;4997242;28;20223;-77
2023/07/15 07:00:57;;;;;;;2.80;2.60;;;;;;;25.57;56.00;97501.84;4997388;28;20221;-77
2023/07/15 07:03:24;;;;;;;4.80;2.95;;;;;;;25.78;53.77;97507.34;4997087;28;20246;-77
2023/07/15 07:05:50;;;;;;;4.28;2.50;;;;;;;25.91;54.96;97500.84;4997093;28;20207;-77
2023/07/15 07:08:16;;;;;;;4.38;2.30;;;;;;;26.29;51.11;97504.25;4996941;28;20235;-77
2023/07/15 07:10:43;;;;;;;2.35;2.15;;;;;;;26.58;49.20;97501.47;4995761;28;20231;-77
2023/07/15 07:13:09;;;;;;;2.20;2.00;;;;;;;26.76;48.02;97500.16;4997000;28;20210;-77
2023/07/15 07:15:36;;;;;;;3.05;2.22;;;;;;;26.85;47.40;97498.16;4996883;28;20207;-77
2023/07/15 07:18:02;;;;;;;3.17;2.28;;;;;;;26.96;46.93;97488.41;4996771;28;20214;-77
2023/07/15 07:20:29;;;;;;;2.67;2.45;;;;;;;27.12;47.55;97483.09;4996937;28;20211;-77
2023/07/15 07:22:55;;;;;;;2.50;2.30;;;;;;;27.19;46.68;97484.16;4996268;28;20685;-77
2023/07/15 07:25:22;;;;;;;2.53;2.33;;;;;;;27.23;47.21;97493.28;4996172;28;20226;-78
2023/07/15 07:27:48;;;;;;;3.30;2.40;;;;;;;27.21;46.83;97494.75;4996626;28;20708;-77
2023/07/15 07:30:15;;;;;;;2.50;2.30;;;;;;;27.28;48.83;97495.78;4996451;28;20265;-77
2023/07/15 07:32:41;;;;;;;3.15;2.20;;;;;;;27.46;45.92;97502.63;4996511;28;20242;-78
2023/07/15 07:35:08;;;;;;;5.38;2.47;;;;;;;27.43;47.45;97503.28;4996330;28;20254;-77
2023/07/15 07:37:34;;;;;;;2.78;2.22;;;;;;;27.59;46.59;97506.94;4996029;28;20217;-77
2023/07/15 07:40:01;;;;;;;2.33;2.10;;;;;;;27.70;46.85;97513.53;4996424;28;20259;-77
2023/07/15 07:42:27;;;;;;;2.40;2.20;;;;;;;27.84;45.65;97511.28;4996025;28;20222;-78
2023/07/15 07:44:55;;;;;;;3.50;2.50;;;;;;;27.89;45.87;97502.06;4996319;28;20207;-77
2023/07/15 07:47:22;;;;;;;3.28;2.63;;;;;;;28.10;45.71;97505.44;4996169;28;20297;-77
2023/07/15 07:49:48;;;;;;;2.72;2.33;;;;;;;28.20;44.74;97505.75;4996121;28;20230;-77
2023/07/15 07:52:14;;;;;;;2.63;2.42;;;;;;;28.33;43.68;97510.03;4995824;28;20251;-77
2023/07/15 07:54:41;;;;;;;2.55;2.35;;;;;;;28.25;42.83;97510.97;4995785;28;20214;-77
2023/07/15 07:57:08;;;;;;;2.50;2.30;;;;;;;28.46;43.94;97511.63;4995713;28;20217;-77
2023/07/15 07:59:35;;;;;;;3.53;2.38;;;;;;;28.56;43.64;97504.84;4995741;28;20234;-77
2023/07/15 08:02:01;;;;;;;2.33;2.13;;;;;;;28.72;43.94;97514.72;4996180;28;20291;-77
2023/07/15 08:04:27;;;;;;;2.53;2.33;;;;;;;28.80;43.89;97502.81;4996107;28;20203;-77
2023/07/15 08:06:54;;;;;;;2.38;2.10;;;;;;;29.13;42.02;97500.63;4996015;28;20203;-77
2023/07/15 08:09:20;;;;;;;2.63;2.10;;;;;;;29.22;41.56;97498.50;4995867;28;20354;-77
2023/07/15 08:11:47;;;;;;;3.90;2.20;;;;;;;29.36;40.56;97498.88;4995756;28;20227;-77
2023/07/15 08:14:13;;;;;;;2.47;2.13;;;;;;;29.51;39.87;97494.50;4995852;28;20212;-78
2023/07/15 08:16:40;;;;;;;3.60;2.40;;;;;;;29.44;40.01;97497.88;4995680;28;20207;-78
2023/07/15 08:19:07;;;;;;;2.58;2.10;;;;;;;29.50;40.37;97490.19;4995570;28;20227;-77
2023/07/15 08:21:34;;;;;;;3.00;2.47;;;;;;;29.36;40.86;97492.59;4995368;28;20242;-78
2023/07/15 08:24:00;;;;;;;4.18;2.20;;;;;;;29.41;40.88;97495.06;4995776;28;20211;-77
2023/07/15 08:26:27;;;;;;;3.25;2.30;;;;;;;29.50;39.57;97499.22;4995326;28;20214;-77
2023/07/15 08:28:55;;;;;;;3.17;2.33;;;;;;;29.46;41.08;97503.81;4995159;28;20231;-77
2023/07/15 08:31:22;;;;;;;3.63;2.65;;;;;;;29.26;41.35;97510.31;4995004;28;20230;-78
2023/07/15 08:33:48;;;;;;;2.17;2.08;;;;;;;29.17;42.13;97503.44;4995364;28;20215;-78
2023/07/15 08:36:15;;;;;;;4.93;2.67;;;;;;;29.29;40.53;97504.16;4995306;28;20207;-77
2023/07/15 08:38:41;;;;;;;3.63;2.28;;;;;;;29.23;41.40;97497.34;4995527;28;20318;-77
2023/07/15 08:41:08;;;;;;;3.00;2.35;;;;;;;29.32;40.38;97497.97;4995369;28;20203;-78
2023/07/15 08:43:34;;;;;;;3.55;2.25;;;;;;;29.36;40.22;97504.34;4994876;28;20741;-77
2023/07/15 08:46:04;;;;;;;2.22;2.08;;;;;;;29.43;39.60;97501.00;4994724;28;20577;-78
2023/07/15 08:48:32;;;;;;;2.20;2.00;;;;;;;29.45;39.49;97504.97;5000236;23;20597;-78
2023/07/15 08:50:58;;;;;;;3.50;2.38;;;;;;;29.35;40.22;97502.72;4992463;28;20286;-77
2023/07/15 08:53:28;;;;;;;2.33;1.98;;;;;;;29.43;40.59;97501.00;4992448;28;20573;-77
2023/07/15 08:55:56;;;;;;;2.67;2.28;;;;;;;29.47;41.56;97504.59;4992785;28;20207;-77
2023/07/15 08:58:24;;;;;;;2.88;2.03;;;;;;;29.43;40.06;97503.72;4992615;28;20282;-77
2023/07/15 09:00:51;;;;;;;3.35;2.58;;;;;;;29.53;39.52;97498.50;4992508;28;20203;-77
2023/07/15 09:03:19;;;;;;;3.83;2.60;;;;;;;29.59;40.88;97505.34;4993014;28;20203;-77
2023/07/15 09:05:45;;;;;;;4.03;2.50;;;;;;;29.56;39.75;97508.78;4993994;28;20217;-77
2023/07/15 09:08:16;;;;;;;3.30;2.30;;;;;;;29.48;40.17;97500.72;4994571;28;20231;-78
2023/07/15 09:10:56;;;;;;;4.55;2.65;;;;;;;29.47;40.84;97488.16;4994332;28;20206;-78
2023/07/15 09:13:31;;;;;;;3.53;2.30;;;;;;;29.57;40.09;97482.97;4994510;28;20241;-74
2023/07/15 09:15:59;;;;;;;2.70;2.50;;;;;;;29.90;37.81;97477.09;4994638;28;20253;-74
2023/07/15 09:18:25;;;;;;;3.78;2.45;;;;;;;30.18;37.15;97484.03;4994293;28;20223;-74
2023/07/15 09:21:08;;;;;;;2.55;2.20;;;;;;;30.32;35.88;97480.78;4994059;28;20570;-74
2023/07/15 09:23:34;;;;;;;2.53;2.33;;;;;;;30.67;36.77;97471.34;4994298;28;20195;-74
2023/07/15 09:26:01;;;;;;;2.70;2.47;;;;;;;30.91;35.30;97472.97;4994124;28;20667;-74
2023/07/15 09:28:27;;;;;;;2.42;2.20;;;;;;;31.19;35.05;97476.22;4994067;28;20255;-74
2023/07/15 09:30:54;;;;;;;2.30;2.20;;;;;;;31.61;33.55;97480.50;4993649;28;20234;-74
2023/07/15 09:33:40;;;;;;;2.38;2.13;;;;;;;31.89;33.41;97466.41;4992454;28;20770;-74
2023/07/15 09:36:07;;;;;;;2.70;2.50;;;;;;;32.10;33.10;97475.75;4993852;28;20208;-74
2023/07/15 09:38:36;;;;;;;2.75;2.10;;;;;;;32.19;32.06;97475.50;4994078;28;20256;-74
2023/07/15 09:41:04;;;;;;;3.17;2.10;;;;;;;32.09;32.81;97476.13;4994266;28;20211;-74
2023/07/15 09:43:53;;;;;;;2.50;2.30;;;;;;;31.76;32.95;97476.03;4993874;28;20214;-74
2023/07/15 09:46:22;;;;;;;3.33;2.40;;;;;;;31.75;33.88;97482.72;4994072;28;20192;-74
2023/07/15 09:48:51;;;;;;;3.10;2.38;;;;;;;31.50;34.07;97485.03;4993837;28;20326;-74
2023/07/15 09:51:19;;;;;;;2.60;2.40;;;;;;;31.72;34.15;97486.97;4994034;28;20226;-74
2023/07/15 09:53:56;;;;;;;6.25;2.20;;;;;;;32.02;32.44;97481.53;4994044;28;20211;-74
2023/07/15 09:56:24;;;;;;;2.78;2.22;;;;;;;31.87;33.29;97475.03;4993800;28;20198;-74
2023/07/15 09:58:53;;;;;;;2.13;2.03;;;;;;;31.78;33.33;97479.19;4993779;28;20589;-74
2023/07/15 10:01:55;;;;;;;2.50;2.30;;;;;;;31.69;33.50;97473.94;4992562;28;20203;-74
2023/07/15 10:04:45;;;;;;;3.20;2.50;;;;;;;32.24;32.02;97467.69;4989293;28;20207;-75
2023/07/15 10:07:12;;;;;;;2.65;2.40;;;;;;;32.16;31.93;97463.25;4994011;28;20198;-75
2023/07/15 10:09:39;;;;;;;2.67;2.38;;;;;;;32.41;32.14;97460.84;4994172;28;20223;-75
2023/07/15 10:12:07;;;;;;;2.67;2.30;;;;;;;32.90;31.38;97459.50;4993910;28;20311;-75
2023/07/15 10:14:34;;;;;;;2.55;2.33;;;;;;;33.21;31.20;97450.75;4993880;28;20211;-75
2023/07/15 10:17:08;;;;;;;2.75;2.50;;;;;;;33.40;30.99;97449.75;4993986;28;20203;-74
2023/07/15 10:19:41;;;;;;;3.67;2.40;;;;;;;33.23;30.02;97455.84;4993854;28;20230;-75
2023/07/15 10:22:08;;;;;;;2.40;2.20;;;;;;;33.02;30.50;97459.19;4993913;28;20199;-75
2023/07/15 10:24:35;;;;;;;2.63;2.42;;;;;;;33.36;29.63;97441.44;4993536;28;20214;-75
2023/07/15 10:27:09;;;;;;;2.85;2.20;;;;;;;33.25;30.47;97443.31;4993532;28;20554;-75
2023/07/15 10:29:41;;;;;;;3.05;2.35;;;;;;;33.36;30.20;97441.44;4993837;28;20230;-75
2023/07/15 10:32:11;;;;;;;2.83;2.63;;;;;;;33.45;29.83;97441.91;4993762;28;20298;-75
2023/07/15 10:34:58;;;;;;;2.38;2.22;;;;;;;33.53;29.99;97443.56;4993887;28;20198;-75
2023/07/15 10:37:24;;;;;;;2.50;2.30;;;;;;;33.27;31.06;97443.72;4993483;28;20217;-75
2023/07/15 10:39:51;;;;;;;2.38;2.28;;;;;;;33.20;30.68;97440.09;4993878;28;20282;-75
2023/07/15 10:42:18;;;;;;;3.20;2.20;;;;;;;32.84;31.04;97443.69;4993902;28;20211;-75
2023/07/15 10:44:57;;;;;;;2.47;2.28;;;;;;;32.78;30.77;97432.19;4994431;28;20223;-75
2023/07/15 10:47:24;;;;;;;2.45;2.10;;;;;;;32.61;31.26;97432.78;4997272;28;20645;-75
2023/07/15 10:49:51;;;;;;;2.45;2.25;;;;;;;32.67;31.50;97431.28;4997063;28;20235;-75
2023/07/15 10:52:18;;;;;;;2.80;2.42;;;;;;;32.64;31.72;97443.06;4997738;28;20232;-75
2023/07/15 10:54:45;;;;;;;2.70;2.50;;;;;;;32.85;31.65;97432.31;4997204;28;20262;-75
2023/07/15 10:57:16;;;;;;;4.35;2.42;;;;;;;32.45;32.31;97429.47;4997110;28;20203;-75
2023/07/15 10:59:44;;;;;;;3.08;2.88;;;;;;;32.53;31.54;97424.84;4996888;28;20231;-75
2023/07/15 11:02:12;;;;;;;2.28;2.08;;;;;;;33.46;30.56;97423.44;4996764;28;20207;-74
2023/07/15 11:04:40;;;;;;;2.55;2.35;;;;;;;33.79;29.97;97426.78;4996699;28;20210;-75
2023/07/15 11:07:09;;;;;;;2.42;2.03;;;;;;;33.48;29.61;97415.56;4996298;28;20214;-75
2023/07/15 11:09:41;;;;;;;2.72;2.47;;;;;;;33.59;30.24;97424.69;4996341;28;20227;-75
2023/07/15 11:12:08;;;;;;;2.15;2.00;;;;;;;33.59;29.60;97430.19;4996858;28;20233;-75
2023/07/15 11:14:37;;;;;;;2.60;2.40;;;;;;;33.19;29.50;97411.75;4996686;28;20551;-75
2023/07/15 11:17:04;;;;;;;2.22;2.03;;;;;;;33.14;29.17;97414.84;4997053;28;20226;-75
2023/07/15 11:19:31;;;;;;;2.45;2.03;;;;;;;32.93;30.10;97411.91;4996212;28;20227;-75
2023/07/15 11:22:00;;;;;;;2.17;2.08;;;;;;;32.83;29.60;97411.81;4996748;28;20210;-76
2023/07/15 11:24:28;;;;;;;2.08;1.98;;;;;;;32.65;28.97;97408.84;4996621;28;20203;-75
2023/07/15 11:26:55;;;;;;;2.22;1.88;;;;;;;32.65;29.29;97405.31;4996530;28;20682;-75
2023/07/15 11:29:25;;;;;;;2.42;2.22;;;;;;;33.14;28.96;97397.53;4996617;28;20235;-75
2023/07/15 11:31:54;;;;;;;2.75;2.35;;;;;;;33.52;27.90;97400.59;4996324;28;20223;-75
2023/07/15 11:34:23;;;;;;;2.55;2.20;;;;;;;33.70;28.02;97396.00;4996962;28;20218;-75
2023/07/15 11:36:51;;;;;;;3.80;2.60;;;;;;;33.53;30.45;97393.13;4995391;28;20456;-74